Time;durP1;ratioP1;P1;durP2;ratioP2;P2;SDS_P1;SDS_P2;PMS_P1;PMS_P2;Temp;Humidity;BMP_temperature;BMP_pressure;BME280_temperature;BME280_humidity;BME280_pressure;Samples;Min_cycle;Max_cycle;Signal;HPM_P1;HPM_P2
2022/05/01 00:01:44;;;;;;;10.00;1.90;;;6.90;66.00;;;;;;4102151;28;21320;-86
2022/05/01 00:03:45;;;;;;;7.22;1.90;;;7.00;66.10;;;;;;4112565;28;20034;-86
2022/05/01 00:05:45;;;;;;;6.22;1.50;;;6.80;66.30;;;;;;4102189;28;20082;-86
2022/05/01 00:07:46;;;;;;;6.20;1.45;;;6.70;66.30;;;;;;4096612;28;20510;-85
2022/05/01 00:09:47;;;;;;;8.10;1.55;;;6.80;66.40;;;;;;4102173;28;20081;-86
2022/05/01 00:11:48;;;;;;;8.45;2.00;;;6.70;66.40;;;;;;4100303;28;20054;-86
2022/05/01 00:13:48;;;;;;;4.53;1.77;;;6.70;66.50;;;;;;4083728;28;20031;-86
2022/05/01 00:15:49;;;;;;;5.93;1.70;;;6.80;66.60;;;;;;4116225;28;20030;-85
2022/05/01 00:17:50;;;;;;;8.27;1.38;;;6.70;66.70;;;;;;4098450;28;20122;-85
2022/05/01 00:19:51;;;;;;;9.00;1.73;;;6.60;66.80;;;;;;4100819;28;20424;-85
2022/05/01 00:21:51;;;;;;;9.75;1.50;;;6.60;66.80;;;;;;4093333;28;20027;-84
2022/05/01 00:23:52;;;;;;;5.60;1.40;;;6.60;66.90;;;;;;4085149;28;20022;-84
2022/05/01 00:25:53;;;;;;;4.97;1.70;;;6.60;67.00;;;;;;4101964;28;20034;-86
2022/05/01 00:27:54;;;;;;;6.72;1.20;;;6.50;66.90;;;;;;4100552;28;20046;-84
2022/05/01 00:29:55;;;;;;;9.13;1.70;;;6.50;66.90;;;;;;4103707;28;20767;-84
2022/05/01 00:31:56;;;;;;;10.75;1.95;;;6.50;67.00;;;;;;4098313;28;20677;-84
2022/05/01 00:36:28;;;;;;;2.92;1.20;;;6.50;67.00;;;;;;4115146;28;20031;-85
2022/05/01 00:38:29;;;;;;;4.97;1.15;;;6.40;66.80;;;;;;4100189;28;20113;-84
2022/05/01 00:40:30;;;;;;;5.07;1.65;;;6.40;66.90;;;;;;4099017;28;20023;-84
2022/05/01 00:42:31;;;;;;;10.77;1.60;;;6.30;66.90;;;;;;4096000;28;20113;-86
2022/05/01 00:44:31;;;;;;;8.75;1.50;;;6.30;66.90;;;;;;4098033;28;20034;-85
2022/05/01 00:46:34;;;;;;;9.10;1.95;;;6.30;67.00;;;;;;4099181;28;20030;-85
2022/05/01 00:48:34;;;;;;;7.30;1.70;;;6.30;67.00;;;;;;4101428;28;20031;-85
2022/05/01 00:50:35;;;;;;;5.93;1.38;;;6.20;66.90;;;;;;4099865;28;20114;-84
2022/05/01 00:52:36;;;;;;;6.40;1.67;;;6.20;67.00;;;;;;4097321;28;20479;-85
2022/05/01 00:54:39;;;;;;;5.72;1.50;;;6.20;67.00;;;;;;4098525;28;20035;-84
2022/05/01 00:56:41;;;;;;;;;;;6.10;67.00;;;;;;4100670;28;20407;-85
2022/05/01 00:58:42;;;;;;;4.50;1.25;;;6.10;67.90;;;;;;4102539;28;20016;-85
2022/05/01 01:00:43;;;;;;;6.18;1.30;;;6.10;66.90;;;;;;4117383;28;20198;-86
2022/05/01 01:02:45;;;;;;;3.78;1.30;;;6.10;66.90;;;;;;4099178;28;20122;-85
2022/05/01 01:04:46;;;;;;;5.32;1.30;;;6.00;66.70;;;;;;4116427;28;20061;-85
2022/05/01 01:06:48;;;;;;;6.68;1.13;;;6.00;66.60;;;;;;4102192;28;20034;-84
2022/05/01 01:08:49;;;;;;;7.70;1.33;;;6.00;66.70;;;;;;4112943;28;20897;-85
2022/05/01 01:10:50;;;;;;;3.53;1.35;;;6.10;66.80;;;;;;4104978;28;20113;-86
2022/05/01 01:12:56;;;;;;;7.10;1.50;;;5.90;66.80;;;;;;4103744;28;20031;-85
2022/05/01 01:14:57;;;;;;;4.72;1.40;;;5.90;66.90;;;;;;4098857;28;20034;-85
2022/05/01 01:16:58;;;;;;;9.65;1.67;;;5.80;66.90;;;;;;4099704;28;20054;-84
2022/05/01 01:18:59;;;;;;;7.65;1.55;;;5.80;67.00;;;;;;4101951;28;20122;-85
2022/05/01 01:21:00;;;;;;;7.88;1.30;;;5.80;67.20;;;;;;4101406;28;20483;-85
2022/05/01 01:23:00;;;;;;;6.03;1.50;;;5.80;67.20;;;;;;4107420;28;20035;-85
2022/05/01 01:25:02;;;;;;;6.30;1.60;;;5.90;67.40;;;;;;4099350;28;20031;-85
2022/05/01 01:27:03;;;;;;;8.70;1.70;;;5.70;67.30;;;;;;4117273;28;20034;-85
2022/05/01 01:31:40;;;;;;;5.43;1.48;;;5.70;67.60;;;;;;4118859;28;20859;-84
2022/05/01 01:31:42;;;;;;;5.43;1.55;;;5.80;67.90;;;;;;4102151;28;20720;-84
2022/05/01 01:33:43;;;;;;;7.25;1.83;;;5.70;68.00;;;;;;4126396;28;20102;-86
2022/05/01 01:35:46;;;;;;;6.80;1.48;;;5.70;68.10;;;;;;4103462;28;20030;-85
2022/05/01 01:37:47;;;;;;;;;;;5.70;68.30;;;;;;4106299;28;20055;-86
2022/05/01 01:39:49;;;;;;;5.05;1.70;;;5.70;69.10;;;;;;4110839;28;19921;-85
2022/05/01 01:41:52;;;;;;;7.00;1.30;;;5.80;68.20;;;;;;4086287;28;20034;-84
2022/05/01 01:43:53;;;;;;;;;;;5.70;68.20;;;;;;4090862;28;20035;-84
2022/05/01 01:45:56;;;;;;;5.10;1.55;;;5.80;69.10;;;;;;4101157;28;19945;-85
2022/05/01 01:48:10;;;;;;;;;;;5.80;68.20;;;;;;4107753;28;20057;-84
2022/05/01 01:50:14;;;;;;;13.68;2.22;;;5.80;69.00;;;;;;4122534;28;19914;-84
2022/05/01 01:52:15;;;;;;;5.60;1.58;;;5.80;68.10;;;;;;4101860;28;20802;-84
2022/05/01 01:54:16;;;;;;;8.68;1.80;;;5.70;68.30;;;;;;4111388;28;20039;-84
2022/05/01 01:56:17;;;;;;;9.65;2.25;;;5.80;68.70;;;;;;4105174;28;20143;-84
2022/05/01 01:58:18;;;;;;;8.30;2.70;;;5.70;68.80;;;;;;4102222;28;20503;-84
2022/05/01 02:00:19;;;;;;;6.40;1.65;;;5.70;69.00;;;;;;4109444;28;20069;-84
2022/05/01 02:02:20;;;;;;;10.20;2.15;;;5.70;69.20;;;;;;4117594;28;20729;-84
2022/05/01 02:04:20;;;;;;;10.02;2.17;;;5.70;69.40;;;;;;4105554;28;20390;-84
2022/05/01 02:06:21;;;;;;;6.93;1.80;;;5.70;69.60;;;;;;4104538;28;20042;-85
2022/05/01 02:08:22;;;;;;;5.72;2.15;;;5.80;69.90;;;;;;4103511;28;20748;-84
2022/05/01 02:10:23;;;;;;;8.05;1.95;;;5.70;69.80;;;;;;4102308;28;20074;-84
2022/05/01 02:12:23;;;;;;;7.65;1.80;;;5.70;69.90;;;;;;4099273;28;20074;-85
2022/05/01 02:14:24;;;;;;;11.10;1.85;;;5.70;70.70;;;;;;4105135;28;20035;-84
2022/05/01 02:16:25;;;;;;;4.95;1.67;;;5.70;70.10;;;;;;4100753;28;20488;-84
2022/05/01 02:18:26;;;;;;;10.15;2.28;;;5.70;70.30;;;;;;4105059;28;20023;-84
2022/05/01 02:21:34;;;;;;;12.60;2.38;;;5.70;70.40;;;;;;4107750;28;20050;-85
2022/05/01 02:22:49;;;;;;;7.10;1.58;;;5.80;70.40;;;;;;4098332;28;20035;-85
2022/05/01 02:24:50;;;;;;;9.60;2.22;;;5.70;70.40;;;;;;4096507;28;20030;-85
2022/05/01 02:26:51;;;;;;;9.68;1.95;;;5.70;70.40;;;;;;4097782;28;20045;-84
2022/05/01 02:28:51;;;;;;;10.20;2.08;;;5.60;70.30;;;;;;4103190;28;20031;-84
2022/05/01 02:30:52;;;;;;;6.95;2.05;;;5.70;70.50;;;;;;4106294;28;20105;-83
2022/05/01 02:32:53;;;;;;;6.38;2.17;;;5.60;70.60;;;;;;4099944;28;20049;-85
2022/05/01 02:34:54;;;;;;;8.18;1.90;;;5.60;70.70;;;;;;4105275;28;20035;-85
2022/05/01 02:36:56;;;;;;;4.72;1.60;;;5.60;70.80;;;;;;4106071;28;20038;-85
2022/05/01 02:38:57;;;;;;;5.25;2.35;;;5.60;70.80;;;;;;4106740;28;20034;-84
2022/05/01 02:40:58;;;;;;;9.82;1.92;;;5.60;70.70;;;;;;4106239;28;20041;-85
2022/05/01 02:42:59;;;;;;;7.65;2.65;;;5.60;70.70;;;;;;4097382;28;20034;-85
2022/05/01 02:45:00;;;;;;;6.85;2.35;;;5.60;70.70;;;;;;4096574;28;20035;-85
2022/05/01 02:47:00;;;;;;;6.00;1.83;;;5.50;70.70;;;;;;4095786;28;20034;-85
2022/05/01 02:49:01;;;;;;;9.30;2.30;;;5.60;70.70;;;;;;4102659;28;20038;-85
2022/05/01 02:51:04;;;;;;;9.75;2.38;;;5.50;70.70;;;;;;4104063;28;20507;-85
2022/05/01 02:53:05;;;;;;;7.30;2.42;;;5.50;70.70;;;;;;4102287;28;20046;-84
2022/05/01 02:55:06;;;;;;;5.75;2.10;;;5.50;70.80;;;;;;4113666;28;20178;-84
2022/05/01 02:57:06;;;;;;;6.60;2.45;;;5.50;70.90;;;;;;4105190;28;20499;-84
2022/05/01 02:59:09;;;;;;;7.63;2.40;;;5.40;70.90;;;;;;4099294;28;20137;-84
2022/05/01 03:01:10;;;;;;;7.53;2.50;;;5.40;71.00;;;;;;4100124;28;20165;-85
2022/05/01 03:03:10;;;;;;;6.65;2.25;;;5.40;71.10;;;;;;4101587;28;20073;-85
2022/05/01 03:05:11;;;;;;;4.95;2.47;;;5.40;71.20;;;;;;4099158;28;20041;-85
2022/05/01 03:07:12;;;;;;;10.75;2.65;;;5.40;71.40;;;;;;4093822;28;20496;-85
2022/05/01 03:09:13;;;;;;;6.53;2.38;;;5.40;71.50;;;;;;4107144;28;20467;-85
2022/05/01 03:11:14;;;;;;;9.75;2.30;;;5.40;71.60;;;;;;4128892;28;20081;-85
2022/05/01 03:13:14;;;;;;;4.25;2.22;;;5.40;71.70;;;;;;4107151;28;20039;-85
2022/05/01 03:15:15;;;;;;;8.55;2.33;;;5.40;72.20;;;;;;4103565;28;20045;-85
2022/05/01 03:17:15;;;;;;;8.88;2.25;;;5.40;72.00;;;;;;4102101;28;20673;-84
2022/05/01 03:23:54;;;;;;;7.53;2.53;;;5.40;72.20;;;;;;4102185;28;20042;-85
2022/05/01 03:25:55;;;;;;;7.22;2.65;;;5.40;72.10;;;;;;4116081;28;20034;-85
2022/05/01 03:27:56;;;;;;;6.38;2.55;;;5.50;72.30;;;;;;4098387;28;20698;-85
2022/05/01 03:32:16;;;;;;;6.07;2.40;;;5.40;72.30;;;;;;4097199;28;20027;-85
2022/05/01 03:34:18;;;;;;;5.38;2.50;;;5.40;72.30;;;;;;4102743;28;20102;-85
2022/05/01 03:36:18;;;;;;;13.93;2.65;;;5.40;72.30;;;;;;4102432;28;20031;-85
2022/05/01 03:38:20;;;;;;;9.15;3.22;;;5.30;72.00;;;;;;4101208;28;20023;-85
2022/05/01 03:40:21;;;;;;;7.03;2.85;;;5.30;72.00;;;;;;4106988;28;20089;-85
2022/05/01 03:42:21;;;;;;;5.75;2.80;;;5.30;72.00;;;;;;4102704;28;20392;-84
2022/05/01 03:44:22;;;;;;;14.70;3.00;;;5.30;72.10;;;;;;4080747;28;20035;-85
2022/05/01 03:46:23;;;;;;;5.10;2.45;;;5.30;72.10;;;;;;4102800;28;20054;-85
2022/05/01 03:48:24;;;;;;;6.28;2.50;;;5.30;72.10;;;;;;4089561;28;20031;-86
2022/05/01 03:50:25;;;;;;;11.15;3.05;;;5.30;72.20;;;;;;4103486;28;20104;-85
2022/05/01 03:52:26;;;;;;;7.28;2.83;;;5.20;72.00;;;;;;4103572;28;20102;-84
2022/05/01 03:54:26;;;;;;;6.30;2.65;;;5.20;72.00;;;;;;4101294;28;20423;-86
2022/05/01 03:56:30;;;;;;;7.13;3.00;;;5.20;72.00;;;;;;4100418;28;20030;-86
2022/05/01 03:58:31;;;;;;;6.75;2.78;;;5.20;72.00;;;;;;4103489;28;20118;-86
2022/05/01 04:00:31;;;;;;;8.35;3.35;;;5.20;72.00;;;;;;4113180;28;20626;-85
2022/05/01 04:02:43;;;;;;;5.80;2.78;;;5.20;72.00;;;;;;4099051;28;20149;-85
2022/05/01 04:04:46;;;;;;;9.20;3.10;;;5.20;72.20;;;;;;4085370;28;20313;-85
2022/05/01 04:06:47;;;;;;;6.53;2.85;;;5.10;72.20;;;;;;4099810;28;20023;-85
2022/05/01 04:08:48;;;;;;;7.97;2.90;;;5.10;72.30;;;;;;4107298;28;20041;-85
2022/05/01 04:10:49;;;;;;;6.28;2.75;;;5.10;72.30;;;;;;4107268;28;20076;-85
2022/05/01 04:12:49;;;;;;;7.60;3.00;;;5.10;72.30;;;;;;4106646;28;20039;-85
2022/05/01 04:14:50;;;;;;;5.30;2.65;;;5.20;72.50;;;;;;4107042;28;20045;-85
2022/05/01 04:16:51;;;;;;;13.93;3.00;;;5.10;72.60;;;;;;4102049;28;20031;-85
2022/05/01 04:18:51;;;;;;;11.07;3.13;;;5.00;73.30;;;;;;4097016;28;20037;-85
2022/05/01 04:20:52;;;;;;;6.82;2.83;;;5.10;72.70;;;;;;4101009;28;20039;-85
2022/05/01 04:22:53;;;;;;;5.45;2.70;;;5.10;72.90;;;;;;4099532;28;20042;-85
2022/05/01 04:24:54;;;;;;;7.10;3.20;;;5.00;72.80;;;;;;4110424;28;20023;-85
2022/05/01 04:26:55;;;;;;;6.88;3.30;;;5.00;73.00;;;;;;4104221;28;20451;-85
2022/05/01 04:31:15;;;;;;;6.05;3.20;;;5.00;73.20;;;;;;4102686;28;20042;-85
2022/05/01 04:33:15;;;;;;;6.43;2.47;;;5.10;73.30;;;;;;4103597;28;20106;-84
2022/05/01 04:35:32;;;;;;;6.00;2.85;;;5.10;73.40;;;;;;4117161;28;20041;-84
2022/05/01 04:37:32;;;;;;;7.63;2.97;;;5.10;73.70;;;;;;4098156;28;20042;-84
2022/05/01 04:39:33;;;;;;;6.15;3.13;;;5.10;73.60;;;;;;4106300;28;20054;-86
2022/05/01 04:41:34;;;;;;;7.05;2.72;;;5.10;73.70;;;;;;4104300;28;20053;-85
2022/05/01 04:43:36;;;;;;;3.75;2.40;;;5.10;73.70;;;;;;4098602;28;20058;-85
2022/05/01 04:45:39;;;;;;;4.00;2.80;;;5.10;73.80;;;;;;4102273;28;20027;-85
2022/05/01 04:47:40;;;;;;;5.57;3.20;;;5.10;73.80;;;;;;4114279;28;20037;-85
2022/05/01 04:49:41;;;;;;;4.97;2.83;;;5.10;73.90;;;;;;4107190;28;20031;-85
2022/05/01 04:51:41;;;;;;;6.47;2.65;;;5.10;73.90;;;;;;4104755;28;20739;-85
2022/05/01 04:53:42;;;;;;;7.13;2.80;;;5.20;74.10;;;;;;4101886;28;21684;-85
2022/05/01 04:55:45;;;;;;;6.32;3.05;;;5.20;74.10;;;;;;4107133;28;20094;-85
2022/05/01 04:57:46;;;;;;;8.48;3.08;;;5.20;74.10;;;;;;4084690;28;21917;-85
2022/05/01 04:59:46;;;;;;;9.60;3.38;;;5.20;74.20;;;;;;4105596;28;20089;-85
2022/05/01 05:01:47;;;;;;;5.50;3.03;;;5.20;74.20;;;;;;4102512;28;20153;-85
2022/05/01 05:03:48;;;;;;;5.40;3.20;;;5.30;74.40;;;;;;4117859;28;20093;-85
2022/05/01 05:05:49;;;;;;;9.57;3.30;;;5.40;74.40;;;;;;4101164;28;20058;-85
2022/05/01 05:07:49;;;;;;;7.13;3.33;;;5.30;74.50;;;;;;4099574;28;20033;-84
2022/05/01 05:09:56;;;;;;;7.93;3.22;;;5.30;74.60;;;;;;4103212;28;20031;-85
2022/05/01 05:11:56;;;;;;;8.05;2.83;;;5.30;74.80;;;;;;4106060;28;20027;-84
2022/05/01 05:13:57;;;;;;;5.50;3.10;;;5.40;75.00;;;;;;4098357;28;20377;-85
2022/05/01 05:15:59;;;;;;;6.07;3.10;;;5.40;75.80;;;;;;4112673;28;21648;-84
2022/05/01 05:17:59;;;;;;;7.38;2.80;;;5.50;75.20;;;;;;4099141;28;20471;-85
2022/05/01 05:20:01;;;;;;;8.07;2.80;;;5.40;75.30;;;;;;4097021;28;20026;-85
2022/05/01 05:22:03;;;;;;;6.47;3.10;;;5.50;75.50;;;;;;4107481;28;20030;-86
2022/05/01 05:24:04;;;;;;;6.45;3.05;;;5.60;75.70;;;;;;4105243;28;20023;-86
2022/05/01 05:26:04;;;;;;;6.88;3.08;;;5.60;76.60;;;;;;4104236;28;20023;-85
2022/05/01 05:28:07;;;;;;;5.70;2.88;;;5.80;76.20;;;;;;4124051;28;20045;-85
2022/05/01 05:30:08;;;;;;;6.85;3.30;;;5.70;76.20;;;;;;4104698;28;20049;-86
2022/05/01 05:32:09;;;;;;;8.95;3.30;;;5.80;76.40;;;;;;4108834;28;20042;-84
2022/05/01 05:34:10;;;;;;;9.48;3.75;;;5.80;76.40;;;;;;4104707;28;20027;-85
2022/05/01 05:36:10;;;;;;;5.28;3.00;;;5.90;76.40;;;;;;4093616;28;20094;-85
2022/05/01 05:38:11;;;;;;;8.63;3.50;;;5.90;76.60;;;;;;4121698;28;20534;-85
2022/05/01 05:40:12;;;;;;;5.05;3.15;;;6.00;76.60;;;;;;4107207;28;20373;-84
2022/05/01 05:42:13;;;;;;;8.43;3.45;;;6.10;76.90;;;;;;4106881;28;20027;-85
2022/05/01 05:44:13;;;;;;;6.60;3.33;;;6.10;76.90;;;;;;4108408;28;20069;-86
2022/05/01 05:46:14;;;;;;;7.43;3.38;;;6.20;77.10;;;;;;4122212;28;20030;-85
2022/05/01 05:48:15;;;;;;;4.93;2.95;;;6.30;77.10;;;;;;4104276;28;20027;-85
2022/05/01 05:50:15;;;;;;;4.32;2.70;;;6.40;77.30;;;;;;4100052;28;20035;-85
2022/05/01 05:52:16;;;;;;;6.10;3.10;;;6.40;77.30;;;;;;4105140;28;20050;-85
2022/05/01 05:54:17;;;;;;;7.70;3.42;;;6.50;77.50;;;;;;4105452;28;20038;-85
2022/05/01 05:56:18;;;;;;;4.50;3.28;;;6.50;77.70;;;;;;4101846;28;20038;-85
2022/05/01 05:58:19;;;;;;;5.35;3.15;;;6.60;77.70;;;;;;4100957;28;20110;-85
2022/05/01 06:00:20;;;;;;;5.35;3.20;;;6.70;77.70;;;;;;4114897;28;22028;-85
2022/05/01 06:02:20;;;;;;;11.43;3.22;;;6.80;77.60;;;;;;4101871;28;20046;-85
2022/05/01 06:04:21;;;;;;;8.30;2.85;;;6.90;77.50;;;;;;4101433;28;20037;-85
2022/05/01 06:06:22;;;;;;;8.30;2.92;;;7.00;77.60;;;;;;4104767;28;20090;-85
2022/05/01 06:08:22;;;;;;;5.18;2.60;;;7.00;77.30;;;;;;4104320;28;20027;-86
2022/05/01 06:10:23;;;;;;;5.72;2.80;;;7.10;77.30;;;;;;4103457;28;20562;-85
2022/05/01 06:12:23;;;;;;;8.15;2.63;;;7.10;77.00;;;;;;4096273;28;20026;-85
2022/05/01 06:14:24;;;;;;;4.63;2.60;;;7.20;76.90;;;;;;4107647;28;20027;-84
2022/05/01 06:16:25;;;;;;;3.92;2.38;;;7.30;76.80;;;;;;4099853;28;20119;-86
2022/05/01 06:18:26;;;;;;;3.30;2.20;;;7.30;76.70;;;;;;4098252;28;20601;-86
2022/05/01 06:20:27;;;;;;;3.60;2.47;;;7.40;76.40;;;;;;4102086;28;20027;-86
2022/05/01 06:22:27;;;;;;;4.00;2.53;;;7.50;76.30;;;;;;4099890;28;20027;-85
2022/05/01 06:24:28;;;;;;;4.93;2.45;;;7.50;76.20;;;;;;4100051;28;20506;-86
2022/05/01 06:26:29;;;;;;;4.13;2.35;;;7.60;76.20;;;;;;4096442;28;20035;-86
2022/05/01 06:28:30;;;;;;;4.35;2.17;;;7.70;76.10;;;;;;4096218;28;20707;-86
2022/05/01 06:30:32;;;;;;;3.83;2.05;;;7.60;75.90;;;;;;4102856;28;20031;-85
2022/05/01 06:32:33;;;;;;;4.60;2.13;;;7.60;75.80;;;;;;4097737;28;20534;-87
2022/05/01 06:34:36;;;;;;;5.60;2.22;;;7.80;76.00;;;;;;4100527;28;20740;-86
2022/05/01 06:36:37;;;;;;;3.65;2.22;;;7.80;76.00;;;;;;4095186;28;20058;-86
2022/05/01 06:38:38;;;;;;;4.90;2.35;;;7.80;75.80;;;;;;4098321;28;20038;-86
2022/05/01 06:40:39;;;;;;;6.20;2.03;;;7.90;75.70;;;;;;4118224;28;20092;-86
2022/05/01 06:42:40;;;;;;;2.83;1.52;;;7.90;75.50;;;;;;4090039;28;20077;-86
2022/05/01 06:44:40;;;;;;;6.38;1.73;;;8.00;75.30;;;;;;4094040;28;20030;-86
2022/05/01 06:46:41;;;;;;;6.07;1.88;;;8.10;74.60;;;;;;4099683;28;20097;-86
2022/05/01 06:48:42;;;;;;;2.42;1.48;;;8.10;74.20;;;;;;4095248;28;20106;-86
2022/05/01 06:50:43;;;;;;;3.30;1.60;;;8.20;74.00;;;;;;4101196;28;20035;-86
2022/05/01 06:52:43;;;;;;;2.97;1.33;;;8.30;74.00;;;;;;4098401;28;20034;-86
2022/05/01 06:54:44;;;;;;;2.97;1.38;;;8.30;73.70;;;;;;4104091;28;20327;-86
2022/05/01 06:56:45;;;;;;;3.03;1.88;;;8.40;73.20;;;;;;4105559;28;20034;-86
2022/05/01 06:58:45;;;;;;;3.35;1.65;;;8.40;73.00;;;;;;4100675;28;20695;-86
2022/05/01 07:00:46;;;;;;;6.53;1.58;;;8.40;72.80;;;;;;4102774;28;20323;-86
2022/05/01 07:02:49;;;;;;;2.53;1.48;;;8.50;72.40;;;;;;4117469;28;20494;-87
2022/05/01 07:04:49;;;;;;;2.30;1.42;;;8.50;72.10;;;;;;4102019;28;20031;-87
2022/05/01 07:06:50;;;;;;;2.05;1.40;;;8.60;71.90;;;;;;4100131;28;20030;-86
2022/05/01 07:08:51;;;;;;;1.77;1.25;;;8.60;71.40;;;;;;4099036;28;20031;-86
2022/05/01 07:10:52;;;;;;;4.03;1.80;;;8.70;71.50;;;;;;4087889;28;20114;-87
2022/05/01 07:12:53;;;;;;;6.18;1.90;;;8.70;71.30;;;;;;4099185;28;22925;-86
2022/05/01 07:14:53;;;;;;;2.85;1.38;;;8.70;71.20;;;;;;4103382;28;20102;-86
2022/05/01 07:16:54;;;;;;;4.15;1.70;;;8.80;71.10;;;;;;4095492;28;20503;-87
2022/05/01 07:18:55;;;;;;;3.72;1.63;;;8.80;71.00;;;;;;4096692;28;20031;-87
2022/05/01 07:20:55;;;;;;;5.55;1.65;;;9.00;71.00;;;;;;4099882;28;20027;-86
2022/05/01 07:22:56;;;;;;;5.10;1.60;;;8.90;71.00;;;;;;4096908;28;20522;-87
2022/05/01 07:24:57;;;;;;;3.75;1.60;;;9.00;71.00;;;;;;4111638;28;20027;-86
2022/05/01 07:26:58;;;;;;;3.03;1.58;;;9.10;70.80;;;;;;4102914;28;20558;-86
2022/05/01 07:28:58;;;;;;;2.35;1.67;;;9.10;70.70;;;;;;4098688;28;20121;-87
2022/05/01 07:30:59;;;;;;;4.88;1.70;;;9.10;70.40;;;;;;4116384;28;20034;-87
2022/05/01 07:33:00;;;;;;;3.38;1.65;;;9.20;70.40;;;;;;4097270;28;20065;-86
2022/05/01 07:35:01;;;;;;;3.47;1.65;;;9.30;70.40;;;;;;4080163;28;20031;-87
2022/05/01 07:37:03;;;;;;;2.40;1.30;;;9.40;70.20;;;;;;4102272;28;20061;-86
2022/05/01 07:39:03;;;;;;;2.85;1.27;;;9.40;69.90;;;;;;4098286;28;20050;-86
2022/05/01 07:41:04;;;;;;;3.45;1.25;;;9.50;69.80;;;;;;4101334;28;20046;-87
2022/05/01 07:43:05;;;;;;;3.05;1.05;;;9.60;69.40;;;;;;4101397;28;20035;-86
2022/05/01 07:45:06;;;;;;;3.10;1.52;;;9.70;68.40;;;;;;4096456;28;20037;-88
2022/05/01 07:47:07;;;;;;;2.55;1.20;;;9.80;67.20;;;;;;4097844;28;20505;-88
2022/05/01 07:49:08;;;;;;;3.90;1.02;;;9.90;66.80;;;;;;4116528;28;20034;-87
2022/05/01 07:51:09;;;;;;;2.38;1.02;;;10.00;66.20;;;;;;4100464;28;20100;-87
2022/05/01 07:53:10;;;;;;;3.80;1.30;;;10.00;65.60;;;;;;4100157;28;20081;-87
2022/05/01 07:55:10;;;;;;;2.10;1.08;;;10.10;64.60;;;;;;4102653;28;20109;-87
2022/05/01 07:57:11;;;;;;;3.13;0.90;;;10.10;63.70;;;;;;4097575;28;20033;-86
2022/05/01 07:59:11;;;;;;;5.13;1.05;;;10.20;63.30;;;;;;4099613;28;20649;-87
2022/05/01 08:01:12;;;;;;;2.50;1.30;;;10.40;63.30;;;;;;4103041;28;20491;-86
2022/05/01 08:05:39;;;;;;;1.90;0.98;;;10.40;62.70;;;;;;4103506;28;20272;-87
2022/05/01 08:07:39;;;;;;;2.92;1.27;;;10.50;62.40;;;;;;4100650;28;20039;-87
2022/05/01 08:09:40;;;;;;;1.60;0.90;;;10.60;62.10;;;;;;4100068;28;20328;-86
2022/05/01 08:11:41;;;;;;;2.75;1.40;;;10.60;60.70;;;;;;4103038;28;20495;-86
2022/05/01 08:13:42;;;;;;;4.43;1.10;;;10.70;59.90;;;;;;4093918;28;21036;-87
2022/05/01 08:15:43;;;;;;;1.67;0.90;;;10.80;59.40;;;;;;4097806;28;20038;-87
2022/05/01 08:17:44;;;;;;;2.10;0.98;;;10.80;59.20;;;;;;4097400;28;20034;-86
2022/05/01 08:22:05;;;;;;;2.65;1.10;;;10.90;59.00;;;;;;4099368;28;20035;-87
2022/05/01 08:24:06;;;;;;;3.95;0.95;;;10.90;58.50;;;;;;4098499;28;20054;-87
2022/05/01 08:26:10;;;;;;;3.63;1.05;;;11.00;58.70;;;;;;4096762;28;20058;-87
2022/05/01 08:28:10;;;;;;;6.00;1.10;;;11.00;58.80;;;;;;4098116;28;20018;-87
2022/05/01 08:30:12;;;;;;;5.07;1.02;;;11.10;58.20;;;;;;4098826;28;20567;-87
2022/05/01 08:32:12;;;;;;;1.70;0.75;;;11.20;57.60;;;;;;4077168;28;20019;-87
2022/05/01 08:34:13;;;;;;;2.40;0.90;;;11.30;57.10;;;;;;4109675;28;20105;-87
2022/05/01 08:36:14;;;;;;;1.73;0.70;;;11.30;57.10;;;;;;4099675;28;20057;-87
2022/05/01 08:38:14;;;;;;;1.58;0.68;;;11.40;57.00;;;;;;4096898;28;20464;-87
2022/05/01 08:40:15;;;;;;;1.80;0.85;;;11.40;56.50;;;;;;4098734;28;20031;-87
2022/05/01 08:42:16;;;;;;;1.20;0.70;;;11.50;56.30;;;;;;4082942;28;20062;-86
2022/05/01 08:44:25;;;;;;;1.33;0.55;;;11.50;55.90;;;;;;4096630;28;20031;-86
2022/05/01 08:47:08;;;;;;;1.77;0.77;;;11.60;55.00;;;;;;4098211;28;20071;-88
2022/05/01 08:49:10;;;;;;;0.60;0.40;;;11.60;54.00;;;;;;4100715;28;20042;-87
2022/05/01 08:51:13;;;;;;;1.75;0.70;;;11.70;54.40;;;;;;4100350;28;20498;-87
2022/05/01 08:53:16;;;;;;;2.03;0.65;;;11.70;54.00;;;;;;4096696;28;20035;-88
2022/05/01 08:55:18;;;;;;;5.93;0.73;;;11.80;53.20;;;;;;4093780;28;20031;-87
2022/05/01 08:57:21;;;;;;;2.13;0.50;;;11.80;52.70;;;;;;4095898;28;20062;-87
2022/05/01 08:59:25;;;;;;;1.58;0.60;;;11.90;52.40;;;;;;4085071;28;20030;-87
2022/05/01 09:01:29;;;;;;;0.98;0.50;;;11.90;51.70;;;;;;4096226;28;20444;-88
2022/05/01 09:03:29;;;;;;;1.42;1.10;;;11.90;50.80;;;;;;4094330;28;20030;-87
2022/05/01 09:05:31;;;;;;;4.60;0.88;;;12.00;51.60;;;;;;4098604;28;20038;-87
2022/05/01 09:07:32;;;;;;;3.78;0.88;;;12.00;50.80;;;;;;4097931;28;20035;-88
2022/05/01 09:09:33;;;;;;;5.55;0.85;;;12.00;50.40;;;;;;4091138;28;20026;-87
2022/05/01 09:13:54;;;;;;;1.80;0.50;;;12.10;50.20;;;;;;4106218;28;20077;-87
2022/05/01 09:16:10;;;;;;;1.20;0.45;;;12.20;50.20;;;;;;4097479;28;20078;-89
2022/05/01 09:18:14;;;;;;;2.45;0.73;;;12.20;49.50;;;;;;4104335;28;21001;-89
2022/05/01 09:20:15;;;;;;;0.73;0.50;;;12.30;49.00;;;;;;4100048;28;20033;-88
2022/05/01 09:22:17;;;;;;;1.17;0.43;;;12.30;49.20;;;;;;4115704;28;20039;-87
2022/05/01 09:24:28;;;;;;;1.13;0.45;;;12.40;49.00;;;;;;4098646;28;20049;-88
2022/05/01 09:26:36;;;;;;;1.80;0.52;;;12.40;48.90;;;;;;4111924;28;20033;-88
2022/05/01 09:28:50;;;;;;;2.05;0.60;;;12.60;48.60;;;;;;4099766;28;20519;-87
2022/05/01 09:30:51;;;;;;;2.80;0.65;;;12.70;48.30;;;;;;4104204;28;20026;-87
2022/05/01 09:32:54;;;;;;;2.17;0.40;;;12.70;48.20;;;;;;4098389;28;20042;-86
2022/05/01 09:34:54;;;;;;;1.40;0.40;;;12.90;47.60;;;;;;4100704;28;20059;-87
2022/05/01 09:36:58;;;;;;;2.15;0.40;;;12.90;46.70;;;;;;4108445;28;20132;-88
2022/05/01 09:39:02;;;;;;;;;;;13.00;45.20;;;;;;4091679;28;20081;-87
2022/05/01 09:41:14;;;;;;;2.13;0.40;;;13.00;46.20;;;;;;4097384;28;21583;-87
2022/05/01 09:43:38;;;;;;;0.65;0.40;;;13.10;45.60;;;;;;4109475;28;20506;-87
2022/05/01 09:45:39;;;;;;;1.40;0.40;;;13.20;44.90;;;;;;4097118;28;21503;-87
2022/05/01 09:47:42;;;;;;;9.32;0.70;;;13.30;45.10;;;;;;4078273;28;20019;-87
2022/05/01 09:49:51;;;;;;;1.45;0.45;;;13.30;45.20;;;;;;4097088;28;20117;-88
2022/05/01 09:51:57;;;;;;;1.25;0.40;;;13.40;43.90;;;;;;4098826;28;20549;-86
2022/05/01 09:54:18;;;;;;;1.85;0.28;;;13.50;43.30;;;;;;4097449;28;20031;-87
2022/05/01 09:56:18;;;;;;;1.67;0.38;;;13.50;42.90;;;;;;4109271;28;20482;-87
2022/05/01 09:58:21;;;;;;;1.65;0.43;;;13.60;43.50;;;;;;4097459;28;20045;-87
2022/05/01 10:00:41;;;;;;;1.45;0.40;;;13.70;44.00;;;;;;4108700;28;20031;-88
2022/05/01 10:02:42;;;;;;;0.80;0.40;;;13.90;43.60;;;;;;4092583;28;20042;-87
2022/05/01 10:04:46;;;;;;;0.93;0.40;;;14.00;42.10;;;;;;4098985;28;20364;-89
2022/05/01 10:06:47;;;;;;;0.57;0.30;;;14.10;41.10;;;;;;4093612;28;20030;-88
2022/05/01 10:08:48;;;;;;;1.00;0.30;;;14.20;40.80;;;;;;4095046;28;20618;-87
2022/05/01 10:10:52;;;;;;;1.08;0.40;;;14.20;40.20;;;;;;4100618;28;20046;-86
2022/05/01 10:12:53;;;;;;;1.25;0.40;;;14.30;39.60;;;;;;4100821;28;20041;-86
2022/05/01 10:14:55;;;;;;;0.93;0.30;;;14.30;39.40;;;;;;4102474;28;20534;-88
2022/05/01 10:16:57;;;;;;;1.85;0.40;;;14.30;39.60;;;;;;4101335;28;20339;-87
2022/05/01 10:18:59;;;;;;;0.63;0.20;;;14.40;40.20;;;;;;4104754;28;20034;-88
2022/05/01 10:21:00;;;;;;;0.45;0.40;;;14.40;40.10;;;;;;4102615;28;20038;-88
2022/05/01 10:23:03;;;;;;;1.10;0.40;;;14.40;39.70;;;;;;4114698;28;20031;-88
2022/05/01 10:25:06;;;;;;;1.55;0.60;;;14.50;39.30;;;;;;4097085;28;20029;-87
2022/05/01 10:27:15;;;;;;;0.73;0.30;;;14.60;39.30;;;;;;4102252;28;21081;-87
2022/05/01 10:29:24;;;;;;;3.53;0.40;;;14.70;38.50;;;;;;4098098;28;20053;-88
2022/05/01 10:32:22;;;;;;;1.35;0.50;;;14.70;37.70;;;;;;4098434;28;20073;-89
2022/05/01 10:34:47;;;;;;;0.45;0.30;;;14.70;36.30;;;;;;4101262;28;20035;-87
2022/05/01 10:37:12;;;;;;;1.85;0.40;;;14.80;37.90;;;;;;4100836;28;20391;-87
2022/05/01 10:39:15;;;;;;;2.60;0.60;;;14.80;39.00;;;;;;4096213;28;20399;-85
2022/05/01 10:41:16;;;;;;;1.35;0.35;;;14.90;38.80;;;;;;4091243;28;20031;-86
2022/05/01 10:43:36;;;;;;;2.80;0.60;;;15.00;39.10;;;;;;4104339;28;20081;-85
2022/05/01 10:45:43;;;;;;;1.60;0.45;;;15.00;38.30;;;;;;4106502;28;20034;-84
2022/05/01 10:47:46;;;;;;;0.30;0.28;;;15.00;38.20;;;;;;4091109;28;20413;-84
2022/05/01 10:49:47;;;;;;;2.20;0.50;;;15.10;36.80;;;;;;4106622;28;20057;-86
2022/05/01 10:51:49;;;;;;;3.83;0.57;;;15.10;34.20;;;;;;4088196;28;20046;-86
2022/05/01 10:54:13;;;;;;;0.93;0.40;;;15.10;35.30;;;;;;4086550;28;20031;-86
2022/05/01 10:56:22;;;;;;;0.80;0.30;;;15.10;33.90;;;;;;4086673;28;20126;-85
2022/05/01 10:58:26;;;;;;;3.17;0.55;;;15.10;35.20;;;;;;4097445;28;20035;-88
2022/05/01 11:00:28;;;;;;;3.42;0.35;;;15.10;36.60;;;;;;4095511;28;20034;-89
2022/05/01 11:02:42;;;;;;;1.20;0.52;;;15.10;35.40;;;;;;4096565;28;20035;-87
2022/05/01 11:04:43;;;;;;;1.50;0.52;;;15.20;34.80;;;;;;4094501;28;20031;-88